Time;durP1;ratioP1;P1;durP2;ratioP2;P2;SDS_P1;SDS_P2;PMS_P1;PMS_P2;Temp;Humidity;BMP_temperature;BMP_pressure;BME280_temperature;BME280_humidity;BME280_pressure;Samples;Min_cycle;Max_cycle;Signal;HPM_P1;HPM_P2
2021/08/09 00:02:22;;;;;;;6.82;1.48;;;;;;;;;;5092205;28;20373;-62
2021/08/09 00:04:48;;;;;;;8.05;1.60;;;;;;;;;;5092344;28;20028;-62
2021/08/09 00:07:14;;;;;;;6.57;1.38;;;;;;;;;;5092352;28;20027;-62
2021/08/09 00:09:40;;;;;;;10.35;1.83;;;;;;;;;;5106859;28;20118;-62
2021/08/09 00:12:06;;;;;;;4.45;1.40;;;;;;;;;;5094283;28;20118;-62
2021/08/09 00:14:32;;;;;;;7.15;1.20;;;;;;;;;;5094283;28;20385;-61
2021/08/09 00:16:59;;;;;;;8.13;1.30;;;;;;;;;;5112708;28;20039;-61
2021/08/09 00:19:24;;;;;;;5.38;1.02;;;;;;;;;;5112670;28;20024;-61
2021/08/09 00:21:51;;;;;;;5.47;1.40;;;;;;;;;;5112615;28;20030;-61
2021/08/09 00:24:17;;;;;;;9.45;1.55;;;;;;;;;;5112786;28;20023;-61
2021/08/09 00:26:43;;;;;;;5.28;1.20;;;;;;;;;;5112557;28;20357;-61
2021/08/09 00:29:09;;;;;;;4.15;1.48;;;;;;;;;;5112289;28;20039;-62
2021/08/09 00:31:35;;;;;;;7.75;1.27;;;;;;;;;;5109251;28;20031;-61
2021/08/09 00:34:01;;;;;;;4.32;1.35;;;;;;;;;;5094565;28;20024;-61
2021/08/09 00:36:27;;;;;;;6.28;1.30;;;;;;;;;;5095607;28;20034;-61
2021/08/09 00:38:54;;;;;;;3.70;1.40;;;;;;;;;;5095462;28;20098;-62
2021/08/09 00:41:20;;;;;;;2.83;1.30;;;;;;;;;;5095671;28;20028;-62
2021/08/09 00:43:46;;;;;;;5.25;1.30;;;;;;;;;;5095967;28;20024;-62
2021/08/09 00:46:12;;;;;;;2.38;1.00;;;;;;;;;;5077739;28;20119;-62
2021/08/09 00:48:38;;;;;;;4.97;1.40;;;;;;;;;;5077161;28;20410;-62
2021/08/09 00:51:04;;;;;;;5.50;1.30;;;;;;;;;;5095636;28;20039;-61
2021/08/09 00:53:30;;;;;;;9.35;1.50;;;;;;;;;;5077622;28;20111;-62
2021/08/09 00:55:57;;;;;;;5.45;1.60;;;;;;;;;;5095430;28;20035;-61
2021/08/09 00:58:23;;;;;;;2.28;1.05;;;;;;;;;;5095175;28;20020;-61
2021/08/09 01:00:54;;;;;;;5.20;1.13;;;;;;;;;;5095825;28;20024;-62
2021/08/09 01:03:20;;;;;;;4.35;1.30;;;;;;;;;;5095648;28;20016;-61
2021/08/09 01:05:49;;;;;;;6.82;1.70;;;;;;;;;;5094942;28;20081;-61
2021/08/09 01:08:34;;;;;;;5.85;1.27;;;;;;;;;;5079695;28;20049;-61
2021/08/09 01:11:00;;;;;;;4.68;1.25;;;;;;;;;;5115202;28;20047;-63
2021/08/09 01:13:32;;;;;;;4.43;1.20;;;;;;;;;;5115412;28;20035;-60
2021/08/09 01:16:11;;;;;;;6.18;1.30;;;;;;;;;;5097172;28;20024;-61
2021/08/09 01:18:38;;;;;;;3.70;1.42;;;;;;;;;;5115344;28;20031;-61
2021/08/09 01:21:05;;;;;;;5.07;1.38;;;;;;;;;;5115288;28;20023;-61
2021/08/09 01:23:49;;;;;;;6.20;1.27;;;;;;;;;;5115274;28;20111;-60
2021/08/09 01:26:18;;;;;;;2.95;1.10;;;;;;;;;;5115277;28;20027;-62
2021/08/09 01:28:45;;;;;;;3.95;1.50;;;;;;;;;;5096794;28;20494;-62
2021/08/09 01:31:12;;;;;;;4.88;1.20;;;;;;;;;;5115019;28;20080;-61
2021/08/09 01:33:39;;;;;;;6.00;1.30;;;;;;;;;;5074318;28;20051;-61
2021/08/09 01:36:05;;;;;;;4.03;1.17;;;;;;;;;;5074723;28;20551;-62
2021/08/09 01:38:32;;;;;;;9.60;1.25;;;;;;;;;;5074319;28;20024;-61
2021/08/09 01:40:58;;;;;;;3.60;1.23;;;;;;;;;;5074155;28;20063;-62
2021/08/09 01:43:25;;;;;;;4.00;1.20;;;;;;;;;;5056060;28;20021;-61
2021/08/09 01:45:56;;;;;;;3.47;1.33;;;;;;;;;;5074471;28;20357;-61
2021/08/09 01:48:23;;;;;;;3.95;1.20;;;;;;;;;;5074491;28;20372;-61
2021/08/09 01:50:49;;;;;;;3.75;1.20;;;;;;;;;;5074037;28;20041;-61
2021/08/09 01:53:15;;;;;;;7.07;1.83;;;;;;;;;;5073882;28;20123;-61
2021/08/09 01:55:42;;;;;;;3.35;1.35;;;;;;;;;;5073845;28;20119;-61
2021/08/09 01:58:08;;;;;;;6.22;1.20;;;;;;;;;;5073636;28;20017;-62
2021/08/09 02:00:33;;;;;;;5.72;1.30;;;;;;;;;;5073755;28;20028;-61
2021/08/09 02:03:00;;;;;;;9.82;1.10;;;;;;;;;;5074315;28;20478;-62
2021/08/09 02:05:26;;;;;;;7.15;1.40;;;;;;;;;;5074090;28;20032;-62
2021/08/09 02:07:53;;;;;;;3.70;0.95;;;;;;;;;;5073562;28;20020;-61
2021/08/09 02:10:21;;;;;;;7.38;1.10;;;;;;;;;;5113785;28;20089;-62
2021/08/09 02:13:05;;;;;;;5.40;1.38;;;;;;;;;;5114207;28;20485;-61
2021/08/09 02:15:34;;;;;;;8.90;1.20;;;;;;;;;;5113970;28;20096;-61
2021/08/09 02:18:06;;;;;;;15.43;1.40;;;;;;;;;;5096014;28;20051;-62
2021/08/09 02:20:34;;;;;;;9.20;1.25;;;;;;;;;;5096167;28;20088;-61
2021/08/09 02:23:03;;;;;;;4.72;1.30;;;;;;;;;;5114473;28;20028;-60
2021/08/09 02:25:32;;;;;;;10.80;1.23;;;;;;;;;;5096112;28;20462;-60
2021/08/09 02:28:13;;;;;;;7.82;1.13;;;;;;;;;;5114326;28;20378;-61
2021/08/09 02:30:42;;;;;;;9.15;1.27;;;;;;;;;;5113640;28;20356;-62
2021/08/09 02:33:08;;;;;;;6.90;1.38;;;;;;;;;;5097423;28;20024;-61
2021/08/09 02:35:35;;;;;;;5.68;1.30;;;;;;;;;;5093463;28;20024;-61
2021/08/09 02:38:01;;;;;;;4.78;1.40;;;;;;;;;;5093093;28;20340;-61
2021/08/09 02:40:27;;;;;;;6.43;1.40;;;;;;;;;;5093631;28;20039;-61
2021/08/09 02:42:53;;;;;;;6.85;1.20;;;;;;;;;;5093801;28;20039;-61
2021/08/09 02:45:19;;;;;;;2.67;0.98;;;;;;;;;;5093462;28;20030;-61
2021/08/09 02:47:46;;;;;;;6.38;1.55;;;;;;;;;;5093754;28;20020;-62
2021/08/09 02:50:13;;;;;;;3.63;1.33;;;;;;;;;;5093100;28;20148;-62
2021/08/09 02:52:40;;;;;;;6.78;1.27;;;;;;;;;;5074620;28;20106;-61
2021/08/09 02:55:07;;;;;;;7.57;1.80;;;;;;;;;;5092842;28;20103;-62
2021/08/09 02:57:33;;;;;;;5.00;1.17;;;;;;;;;;5092558;28;20028;-61
2021/08/09 03:00:00;;;;;;;4.78;1.42;;;;;;;;;;5093074;28;20027;-61
2021/08/09 03:02:28;;;;;;;5.40;1.23;;;;;;;;;;5092901;28;20024;-61
2021/08/09 03:04:55;;;;;;;5.13;1.10;;;;;;;;;;5092925;28;20024;-61
2021/08/09 03:07:21;;;;;;;11.32;1.30;;;;;;;;;;5092816;28;20027;-62
2021/08/09 03:09:47;;;;;;;8.35;1.48;;;;;;;;;;5108182;28;20127;-61
2021/08/09 03:12:18;;;;;;;8.63;1.40;;;;;;;;;;5094922;28;20081;-61
2021/08/09 03:14:48;;;;;;;5.30;1.25;;;;;;;;;;5113143;28;20024;-61
2021/08/09 03:17:14;;;;;;;5.90;1.40;;;;;;;;;;5113081;28;20404;-62
2021/08/09 03:19:40;;;;;;;2.58;1.10;;;;;;;;;;5113199;28;20103;-65
2021/08/09 03:22:06;;;;;;;10.77;1.20;;;;;;;;;;5095252;28;20122;-62
2021/08/09 03:24:32;;;;;;;20.52;1.38;;;;;;;;;;5095248;28;20032;-61
2021/08/09 03:26:59;;;;;;;6.68;1.48;;;;;;;;;;5112790;28;20110;-61
2021/08/09 03:29:25;;;;;;;7.72;1.20;;;;;;;;;;5113071;28;20032;-61
2021/08/09 03:31:51;;;;;;;3.85;1.00;;;;;;;;;;5107524;28;20056;-61
2021/08/09 03:34:17;;;;;;;8.73;1.48;;;;;;;;;;5092703;28;20484;-61
2021/08/09 03:36:47;;;;;;;16.48;1.25;;;;;;;;;;5092517;28;20052;-60
2021/08/09 03:39:14;;;;;;;8.27;1.23;;;;;;;;;;5074328;28;20060;-61
2021/08/09 03:41:40;;;;;;;13.48;1.60;;;;;;;;;;5093023;28;20052;-62
2021/08/09 03:44:06;;;;;;;11.95;1.85;;;;;;;;;;5092897;28;20060;-62
2021/08/09 03:46:32;;;;;;;6.35;1.33;;;;;;;;;;5092942;28;20028;-62
2021/08/09 03:48:58;;;;;;;12.52;1.85;;;;;;;;;;5092939;28;20103;-61
2021/08/09 03:51:24;;;;;;;4.30;1.55;;;;;;;;;;5092672;28;20376;-61
2021/08/09 03:53:50;;;;;;;14.60;1.70;;;;;;;;;;5074440;28;20487;-62
2021/08/09 03:56:16;;;;;;;9.52;1.80;;;;;;;;;;5092299;28;20032;-61
2021/08/09 03:58:42;;;;;;;7.85;1.30;;;;;;;;;;5092519;28;20525;-61
2021/08/09 04:01:08;;;;;;;4.22;1.50;;;;;;;;;;5074242;28;20056;-62
2021/08/09 04:03:36;;;;;;;4.15;1.20;;;;;;;;;;5092283;28;20088;-61
2021/08/09 04:06:02;;;;;;;9.02;1.50;;;;;;;;;;5092302;28;20031;-61
2021/08/09 04:08:28;;;;;;;8.48;1.45;;;;;;;;;;5080266;28;20024;-61
2021/08/09 04:10:54;;;;;;;8.50;1.58;;;;;;;;;;5116222;28;20050;-62
2021/08/09 04:13:20;;;;;;;7.63;1.60;;;;;;;;;;5098378;28;20499;-61
2021/08/09 04:15:46;;;;;;;5.22;1.33;;;;;;;;;;5116325;28;20140;-61
2021/08/09 04:18:12;;;;;;;5.78;1.65;;;;;;;;;;5116499;28;20024;-62
2021/08/09 04:20:38;;;;;;;3.75;1.30;;;;;;;;;;5116348;28;20081;-62
2021/08/09 04:23:04;;;;;;;16.73;1.73;;;;;;;;;;5116287;28;20024;-61
2021/08/09 04:25:30;;;;;;;7.22;1.30;;;;;;;;;;5097972;28;20111;-61
2021/08/09 04:27:56;;;;;;;8.20;2.05;;;;;;;;;;5116299;28;20061;-61
2021/08/09 04:30:22;;;;;;;13.13;1.40;;;;;;;;;;5116471;28;20065;-61
2021/08/09 04:32:48;;;;;;;9.73;1.60;;;;;;;;;;5102687;28;20020;-62
2021/08/09 04:35:15;;;;;;;13.88;1.67;;;;;;;;;;5095952;28;20024;-62
2021/08/09 04:37:41;;;;;;;10.30;1.65;;;;;;;;;;5095361;28;20031;-62
2021/08/09 04:40:07;;;;;;;14.10;1.67;;;;;;;;;;5094923;28;20024;-62
2021/08/09 04:42:33;;;;;;;7.40;1.40;;;;;;;;;;5094865;28;20038;-62
2021/08/09 04:44:59;;;;;;;11.38;1.70;;;;;;;;;;5095240;28;20355;-62
2021/08/09 04:47:26;;;;;;;12.75;2.08;;;;;;;;;;5094994;28;20108;-62
2021/08/09 04:49:52;;;;;;;13.23;1.58;;;;;;;;;;5076760;28;20074;-62
2021/08/09 04:52:18;;;;;;;9.82;1.98;;;;;;;;;;5094679;28;20020;-63
2021/08/09 04:54:45;;;;;;;11.75;1.83;;;;;;;;;;5096915;28;20348;-64
2021/08/09 04:57:11;;;;;;;9.65;1.85;;;;;;;;;;5103585;28;20034;-62
2021/08/09 04:59:37;;;;;;;17.77;2.20;;;;;;;;;;5104419;28;20023;-63
2021/08/09 05:02:03;;;;;;;10.75;1.55;;;;;;;;;;5092496;28;20024;-62
2021/08/09 05:04:29;;;;;;;16.60;3.25;;;;;;;;;;5074902;28;20099;-67
2021/08/09 05:06:55;;;;;;;6.40;1.50;;;;;;;;;;5084874;28;20031;-67
2021/08/09 05:09:21;;;;;;;11.82;1.85;;;;;;;;;;5086309;28;20032;-68
2021/08/09 05:11:47;;;;;;;9.82;2.45;;;;;;;;;;5087853;28;20043;-67
2021/08/09 05:14:13;;;;;;;9.60;1.85;;;;;;;;;;5092035;28;20036;-67
2021/08/09 05:16:41;;;;;;;9.68;2.30;;;;;;;;;;5094822;28;20028;-67
2021/08/09 05:19:08;;;;;;;10.38;1.80;;;;;;;;;;5094116;28;20046;-67
2021/08/09 05:21:35;;;;;;;8.90;2.25;;;;;;;;;;5076141;28;20047;-67
2021/08/09 05:24:02;;;;;;;8.38;1.65;;;;;;;;;;5076131;28;20028;-67
2021/08/09 05:26:28;;;;;;;5.88;1.70;;;;;;;;;;5094291;28;20024;-67
2021/08/09 05:28:54;;;;;;;10.20;2.05;;;;;;;;;;5093636;28;20012;-67
2021/08/09 05:31:20;;;;;;;11.60;2.05;;;;;;;;;;5074880;28;20428;-68
2021/08/09 05:33:46;;;;;;;8.18;1.77;;;;;;;;;;5076402;28;20023;-67
2021/08/09 05:36:12;;;;;;;10.38;1.67;;;;;;;;;;5094271;28;20032;-65
2021/08/09 05:38:38;;;;;;;13.85;1.75;;;;;;;;;;5096656;28;20076;-67
2021/08/09 05:41:05;;;;;;;10.15;1.65;;;;;;;;;;5100749;28;20027;-67
2021/08/09 05:43:31;;;;;;;9.70;1.63;;;;;;;;;;5102071;28;20027;-67
2021/08/09 05:45:57;;;;;;;7.05;1.60;;;;;;;;;;5102658;28;20069;-67
2021/08/09 05:48:23;;;;;;;5.90;1.58;;;;;;;;;;5104061;28;20023;-65
2021/08/09 05:50:49;;;;;;;7.75;1.80;;;;;;;;;;5081116;28;20505;-67
2021/08/09 05:53:15;;;;;;;11.95;1.73;;;;;;;;;;5113576;28;20061;-65
2021/08/09 05:55:41;;;;;;;22.25;1.92;;;;;;;;;;5108138;28;20028;-64
2021/08/09 05:58:07;;;;;;;12.75;1.85;;;;;;;;;;5102092;28;20155;-64
2021/08/09 06:00:33;;;;;;;11.25;1.52;;;;;;;;;;5103054;28;20208;-65
2021/08/09 06:03:00;;;;;;;8.27;1.35;;;;;;;;;;5104676;28;20020;-64
2021/08/09 06:05:27;;;;;;;5.82;1.50;;;;;;;;;;5104438;28;20093;-62
2021/08/09 06:07:53;;;;;;;11.00;1.88;;;;;;;;;;5093220;28;20020;-64
2021/08/09 06:10:21;;;;;;;12.27;1.65;;;;;;;;;;5113620;28;20421;-66
2021/08/09 06:12:47;;;;;;;10.27;1.52;;;;;;;;;;5114000;28;20046;-66
2021/08/09 06:15:13;;;;;;;13.23;1.65;;;;;;;;;;5113707;28;20109;-65
2021/08/09 06:17:39;;;;;;;13.90;2.20;;;;;;;;;;5113638;28;20032;-64
2021/08/09 06:20:05;;;;;;;13.93;2.60;;;;;;;;;;5113882;28;20492;-64
2021/08/09 06:22:31;;;;;;;30.83;2.38;;;;;;;;;;5094744;28;20388;-65
2021/08/09 06:24:57;;;;;;;8.98;1.95;;;;;;;;;;5095165;28;20474;-64
2021/08/09 06:27:23;;;;;;;17.10;2.03;;;;;;;;;;5113565;28;20737;-62
2021/08/09 06:29:49;;;;;;;10.60;1.70;;;;;;;;;;5101653;28;20055;-62
2021/08/09 06:32:15;;;;;;;14.55;1.88;;;;;;;;;;5095141;28;21465;-62
2021/08/09 06:34:42;;;;;;;25.80;2.45;;;;;;;;;;5093493;28;20024;-61
2021/08/09 06:37:07;;;;;;;26.80;2.60;;;;;;;;;;5093297;28;20024;-62
2021/08/09 06:39:33;;;;;;;23.23;1.80;;;;;;;;;;5093469;28;20044;-61
2021/08/09 06:42:02;;;;;;;14.38;1.70;;;;;;;;;;5093450;28;20524;-62
2021/08/09 06:44:28;;;;;;;14.57;1.98;;;;;;;;;;5092974;28;20020;-61
2021/08/09 06:46:54;;;;;;;19.35;1.88;;;;;;;;;;5079198;28;20028;-60
2021/08/09 06:49:20;;;;;;;14.35;1.70;;;;;;;;;;5087955;28;20040;-62
2021/08/09 06:51:46;;;;;;;12.15;2.42;;;;;;;;;;5092464;28;20367;-63
2021/08/09 06:54:13;;;;;;;13.98;1.88;;;;;;;;;;5092473;28;20142;-61
2021/08/09 06:56:39;;;;;;;10.57;1.95;;;;;;;;;;5074826;28;20035;-62
2021/08/09 06:59:05;;;;;;;13.38;1.65;;;;;;;;;;5072383;28;20020;-61
2021/08/09 07:01:31;;;;;;;9.60;1.70;;;;;;;;;;5072349;28;20029;-61
2021/08/09 07:03:58;;;;;;;11.88;1.88;;;;;;;;;;5112126;28;20020;-60
2021/08/09 07:06:24;;;;;;;8.85;1.45;;;;;;;;;;5104560;28;20028;-61
2021/08/09 07:08:51;;;;;;;10.23;2.05;;;;;;;;;;5099941;28;20026;-61
2021/08/09 07:11:17;;;;;;;12.95;1.75;;;;;;;;;;5112426;28;20075;-62
2021/08/09 07:13:43;;;;;;;14.30;1.48;;;;;;;;;;5113036;28;20039;-63
2021/08/09 07:16:11;;;;;;;9.73;1.85;;;;;;;;;;5112942;28;20027;-62
2021/08/09 07:18:37;;;;;;;10.57;1.52;;;;;;;;;;5113064;28;20030;-62
2021/08/09 07:21:03;;;;;;;9.45;1.70;;;;;;;;;;5113161;28;20449;-61
2021/08/09 07:23:29;;;;;;;11.30;1.60;;;;;;;;;;5106969;28;20020;-61
2021/08/09 07:25:55;;;;;;;7.95;1.40;;;;;;;;;;5101668;28;20375;-62
2021/08/09 07:28:22;;;;;;;13.98;1.90;;;;;;;;;;5094672;28;20042;-61
2021/08/09 07:30:47;;;;;;;7.57;1.52;;;;;;;;;;5092315;28;20463;-61
2021/08/09 07:33:13;;;;;;;6.50;1.35;;;;;;;;;;5074159;28;20073;-60
2021/08/09 07:35:39;;;;;;;8.95;1.52;;;;;;;;;;5092477;28;20363;-61
2021/08/09 07:38:05;;;;;;;8.85;1.75;;;;;;;;;;5092260;28;20099;-61
2021/08/09 07:40:31;;;;;;;6.50;1.30;;;;;;;;;;5074074;28;20638;-61
2021/08/09 07:42:57;;;;;;;5.15;1.33;;;;;;;;;;5095810;28;20028;-61
2021/08/09 07:45:23;;;;;;;11.10;1.77;;;;;;;;;;5096896;28;20043;-62
2021/08/09 07:47:52;;;;;;;6.97;1.23;;;;;;;;;;5097055;28;20024;-61
2021/08/09 07:50:19;;;;;;;7.80;1.83;;;;;;;;;;5096803;28;20031;-61
2021/08/09 07:52:45;;;;;;;7.82;1.30;;;;;;;;;;5096735;28;20028;-61
2021/08/09 07:55:11;;;;;;;9.38;1.20;;;;;;;;;;5096835;28;20032;-62
2021/08/09 07:57:37;;;;;;;6.63;1.40;;;;;;;;;;5096690;28;20024;-61
2021/08/09 08:00:04;;;;;;;6.88;1.33;;;;;;;;;;5096319;28;20085;-61
2021/08/09 08:02:30;;;;;;;9.38;1.63;;;;;;;;;;5078066;28;20040;-62
2021/08/09 08:04:56;;;;;;;4.35;1.38;;;;;;;;;;5096214;28;20041;-61
2021/08/09 08:07:22;;;;;;;7.72;1.52;;;;;;;;;;5096048;28;20063;-61
2021/08/09 08:09:51;;;;;;;7.78;1.40;;;;;;;;;;5111515;28;20435;-62
2021/08/09 08:12:17;;;;;;;12.35;1.50;;;;;;;;;;5098368;28;20497;-62
2021/08/09 08:14:43;;;;;;;15.77;1.48;;;;;;;;;;5116354;28;20431;-62
2021/08/09 08:17:09;;;;;;;7.57;1.48;;;;;;;;;;5116511;28;20027;-62
2021/08/09 08:19:35;;;;;;;9.10;1.70;;;;;;;;;;5101589;28;20020;-61
2021/08/09 08:22:01;;;;;;;6.82;1.60;;;;;;;;;;5093208;28;20420;-61
2021/08/09 08:24:27;;;;;;;16.73;2.33;;;;;;;;;;5075444;28;20082;-61
2021/08/09 08:26:54;;;;;;;6.30;1.40;;;;;;;;;;5075774;28;20111;-61
2021/08/09 08:29:20;;;;;;;5.03;1.30;;;;;;;;;;5075565;28;20021;-61
2021/08/09 08:31:46;;;;;;;5.80;1.60;;;;;;;;;;5080353;28;20073;-62
2021/08/09 08:34:12;;;;;;;7.57;1.70;;;;;;;;;;5096040;28;20401;-62
2021/08/09 08:36:38;;;;;;;8.45;1.50;;;;;;;;;;5095794;28;20031;-61
2021/08/09 08:39:04;;;;;;;9.13;1.48;;;;;;;;;;5077577;28;20165;-61
2021/08/09 08:41:32;;;;;;;7.80;1.77;;;;;;;;;;5095522;28;20024;-61
2021/08/09 08:43:58;;;;;;;7.35;1.73;;;;;;;;;;5095746;28;20028;-62
2021/08/09 08:46:24;;;;;;;4.47;1.08;;;;;;;;;;5096041;28;20034;-62
2021/08/09 08:48:51;;;;;;;8.10;1.27;;;;;;;;;;5095911;28;20028;-62
2021/08/09 08:51:20;;;;;;;6.88;1.52;;;;;;;;;;5095805;28;20039;-61
2021/08/09 08:53:48;;;;;;;7.93;1.58;;;;;;;;;;5076785;28;20024;-62
2021/08/09 08:56:14;;;;;;;7.35;1.48;;;;;;;;;;5095733;28;20024;-61
2021/08/09 08:58:40;;;;;;;7.40;1.23;;;;;;;;;;5095724;28;20025;-61
2021/08/09 09:01:06;;;;;;;6.20;1.38;;;;;;;;;;5077673;28;20024;-61
2021/08/09 09:03:37;;;;;;;5.25;1.58;;;;;;;;;;5095394;28;20028;-62
2021/08/09 09:06:04;;;;;;;7.60;1.30;;;;;;;;;;5095184;28;20026;-61
2021/08/09 09:08:37;;;;;;;8.25;1.42;;;;;;;;;;5099860;28;20016;-61
2021/08/09 09:11:04;;;;;;;10.80;1.38;;;;;;;;;;5115214;28;20071;-61
2021/08/09 09:13:30;;;;;;;4.90;1.50;;;;;;;;;;5097414;28;20023;-61
2021/08/09 09:16:03;;;;;;;4.93;1.40;;;;;;;;;;5115259;28;20078;-61
2021/08/09 09:18:56;;;;;;;7.05;1.17;;;;;;;;;;5096902;28;20390;-61
2021/08/09 09:21:23;;;;;;;;;;;;;;;;;;5111521;28;20031;-61
2021/08/09 09:23:49;;;;;;;4.18;1.42;;;;;;;;;;5115129;28;19912;-61
2021/08/09 09:26:22;;;;;;;4.32;1.20;;;;;;;;;;5115209;28;20031;-61
2021/08/09 09:28:49;;;;;;;4.00;1.40;;;;;;;;;;5115315;28;20027;-61
2021/08/09 09:31:25;;;;;;;5.00;1.45;;;;;;;;;;5115023;28;20041;-61
2021/08/09 09:33:52;;;;;;;5.43;1.73;;;;;;;;;;5114986;28;20473;-61
2021/08/09 09:36:21;;;;;;;5.10;1.50;;;;;;;;;;5115075;28;20034;-61
2021/08/09 09:38:49;;;;;;;7.22;1.38;;;;;;;;;;5115080;28;20022;-64
2021/08/09 09:41:15;;;;;;;5.93;1.48;;;;;;;;;;5114849;28;20047;-61
2021/08/09 09:43:42;;;;;;;7.55;1.48;;;;;;;;;;5110651;28;20044;-61
2021/08/09 09:46:20;;;;;;;4.82;1.33;;;;;;;;;;5094441;28;20506;-64
2021/08/09 09:48:46;;;;;;;5.22;1.52;;;;;;;;;;5094470;28;20371;-62
2021/08/09 09:51:16;;;;;;;5.75;1.50;;;;;;;;;;5094224;28;20036;-62
2021/08/09 09:53:42;;;;;;;11.25;1.52;;;;;;;;;;5094331;28;20020;-62
2021/08/09 09:56:09;;;;;;;6.68;1.63;;;;;;;;;;5094178;28;20035;-62
2021/08/09 09:58:36;;;;;;;7.20;1.35;;;;;;;;;;5093902;28;20134;-61
2021/08/09 10:01:02;;;;;;;20.73;1.40;;;;;;;;;;5094179;28;20103;-61
2021/08/09 10:03:30;;;;;;;7.72;1.40;;;;;;;;;;5093978;28;20054;-61
2021/08/09 10:05:56;;;;;;;5.65;1.50;;;;;;;;;;5093827;28;20028;-61
2021/08/09 10:08:25;;;;;;;4.55;1.48;;;;;;;;;;5079578;28;20129;-61
2021/08/09 10:10:52;;;;;;;8.80;1.88;;;;;;;;;;5114003;28;20055;-61
2021/08/09 10:13:21;;;;;;;9.05;1.85;;;;;;;;;;5114477;28;20028;-62
2021/08/09 10:15:54;;;;;;;9.90;1.98;;;;;;;;;;5113967;28;20339;-62
2021/08/09 10:18:21;;;;;;;;;;;;;;;;;;5114804;28;20016;-61
2021/08/09 10:20:49;;;;;;;8.45;1.73;;;;;;;;;;5114341;28;20006;-61
2021/08/09 10:23:15;;;;;;;9.07;1.88;;;;;;;;;;5114128;28;20024;-62
2021/08/09 10:25:44;;;;;;;5.47;1.30;;;;;;;;;;5095523;28;20027;-61
2021/08/09 10:28:10;;;;;;;7.40;1.58;;;;;;;;;;5113963;28;20123;-62
2021/08/09 10:30:37;;;;;;;3.60;1.40;;;;;;;;;;5095517;28;20039;-63
2021/08/09 10:33:10;;;;;;;6.95;1.80;;;;;;;;;;5098301;28;20016;-62
2021/08/09 10:35:38;;;;;;;4.85;1.58;;;;;;;;;;5093185;28;20028;-61
2021/08/09 10:38:20;;;;;;;9.65;1.50;;;;;;;;;;5093664;28;20032;-61
2021/08/09 10:40:47;;;;;;;5.53;1.30;;;;;;;;;;5093275;28;20058;-61
2021/08/09 10:43:13;;;;;;;3.88;1.17;;;;;;;;;;5074910;28;20455;-61
2021/08/09 10:45:40;;;;;;;5.60;1.33;;;;;;;;;;5073413;28;20463;-61
2021/08/09 10:48:08;;;;;;;4.03;1.42;;;;;;;;;;5073037;28;20020;-63
2021/08/09 10:50:38;;;;;;;4.45;1.30;;;;;;;;;;5072424;28;20036;-61
2021/08/09 10:53:04;;;;;;;5.22;1.42;;;;;;;;;;5073176;28;20439;-60
2021/08/09 10:55:30;;;;;;;5.97;1.40;;;;;;;;;;5073334;28;20123;-61
2021/08/09 10:58:00;;;;;;;3.10;1.50;;;;;;;;;;5073381;28;20412;-61
2021/08/09 11:00:41;;;;;;;4.82;1.40;;;;;;;;;;5081710;28;20032;-61
2021/08/09 11:03:07;;;;;;;2.97;1.40;;;;;;;;;;5102881;28;20107;-61
2021/08/09 11:05:33;;;;;;;6.50;1.58;;;;;;;;;;5092842;28;20150;-61
2021/08/09 11:08:18;;;;;;;4.97;1.30;;;;;;;;;;5093481;28;20427;-61
2021/08/09 11:10:56;;;;;;;5.95;1.45;;;;;;;;;;5112734;28;20052;-61
2021/08/09 11:13:25;;;;;;;3.53;1.60;;;;;;;;;;5113360;28;20028;-60
2021/08/09 11:15:54;;;;;;;4.88;1.70;;;;;;;;;;5113164;28;20024;-60
2021/08/09 11:18:20;;;;;;;7.85;2.10;;;;;;;;;;5112779;28;20049;-61
2021/08/09 11:20:46;;;;;;;7.43;1.70;;;;;;;;;;5112938;28;20486;-60
2021/08/09 11:23:15;;;;;;;8.02;1.95;;;;;;;;;;5112793;28;20530;-61
2021/08/09 11:25:45;;;;;;;8.80;1.25;;;;;;;;;;5112832;28;20031;-62
2021/08/09 11:28:16;;;;;;;4.60;1.40;;;;;;;;;;5112857;28;20602;-62
2021/08/09 11:30:42;;;;;;;9.52;1.83;;;;;;;;;;5112511;28;20039;-62
2021/08/09 11:33:19;;;;;;;3.38;1.40;;;;;;;;;;5096548;28;20138;-61
2021/08/09 11:35:46;;;;;;;4.90;1.40;;;;;;;;;;5092081;28;20020;-62
2021/08/09 11:38:12;;;;;;;4.85;1.40;;;;;;;;;;5074398;28;20072;-61
2021/08/09 11:40:39;;;;;;;7.43;1.50;;;;;;;;;;5092246;28;20519;-62
2021/08/09 11:43:06;;;;;;;5.50;1.60;;;;;;;;;;5092350;28;20500;-62
2021/08/09 11:45:33;;;;;;;5.20;1.80;;;;;;;;;;5092155;28;20477;-61
2021/08/09 11:47:59;;;;;;;2.83;1.27;;;;;;;;;;5092192;28;20027;-61
2021/08/09 11:50:25;;;;;;;6.55;1.45;;;;;;;;;;5092010;28;20047;-62
2021/08/09 11:52:51;;;;;;;5.63;1.45;;;;;;;;;;5092097;28;20103;-62
2021/08/09 11:55:21;;;;;;;2.30;1.02;;;;;;;;;;5092006;28;20032;-62
2021/08/09 11:57:47;;;;;;;3.45;1.38;;;;;;;;;;5091817;28;20031;-62
2021/08/09 12:00:13;;;;;;;5.93;1.50;;;;;;;;;;5092274;28;20106;-62
2021/08/09 12:02:58;;;;;;;3.92;1.10;;;;;;;;;;5073908;28;20123;-62
2021/08/09 12:05:24;;;;;;;4.50;1.40;;;;;;;;;;5091799;28;20027;-62
2021/08/09 12:07:58;;;;;;;6.35;1.42;;;;;;;;;;5091911;28;20020;-62
2021/08/09 12:10:25;;;;;;;4.72;1.40;;;;;;;;;;5071604;28;20041;-62
2021/08/09 12:12:51;;;;;;;3.55;1.30;;;;;;;;;;5071756;28;20108;-62
2021/08/09 12:15:17;;;;;;;4.03;1.17;;;;;;;;;;5071652;28;20107;-62
2021/08/09 12:17:43;;;;;;;3.97;1.30;;;;;;;;;;5053572;28;20025;-62
2021/08/09 12:20:13;;;;;;;6.80;1.70;;;;;;;;;;5071847;28;20028;-62
2021/08/09 12:22:39;;;;;;;3.53;1.20;;;;;;;;;;5071506;28;20082;-62
2021/08/09 12:25:07;;;;;;;4.40;1.38;;;;;;;;;;5053774;28;20096;-62
2021/08/09 12:27:33;;;;;;;3.90;1.23;;;;;;;;;;5071824;28;20017;-62
2021/08/09 12:30:05;;;;;;;2.95;1.60;;;;;;;;;;5073873;28;20032;-62
2021/08/09 12:32:32;;;;;;;5.15;1.40;;;;;;;;;;5068043;28;20023;-62
2021/08/09 12:34:59;;;;;;;6.90;1.40;;;;;;;;;;5095488;28;20399;-62
2021/08/09 12:37:25;;;;;;;7.28;1.88;;;;;;;;;;5094761;28;20047;-62
2021/08/09 12:39:51;;;;;;;2.78;1.20;;;;;;;;;;5095312;28;20407;-62
2021/08/09 12:42:21;;;;;;;8.15;1.83;;;;;;;;;;5095196;28;20027;-62
2021/08/09 12:44:48;;;;;;;4.55;1.13;;;;;;;;;;5095151;28;20103;-62
2021/08/09 12:47:15;;;;;;;3.70;1.55;;;;;;;;;;5094910;28;20016;-63
2021/08/09 12:49:41;;;;;;;4.13;1.60;;;;;;;;;;5103093;28;20082;-62
2021/08/09 12:52:07;;;;;;;3.97;1.55;;;;;;;;;;5104458;28;20402;-62
2021/08/09 12:54:33;;;;;;;5.00;1.77;;;;;;;;;;5105358;28;20016;-62
2021/08/09 12:57:00;;;;;;;8.70;1.50;;;;;;;;;;5109943;28;20028;-62
2021/08/09 12:59:27;;;;;;;5.93;1.70;;;;;;;;;;5115693;28;20032;-62
2021/08/09 13:01:53;;;;;;;4.53;1.52;;;;;;;;;;5115585;28;20472;-62
2021/08/09 13:04:19;;;;;;;6.70;1.50;;;;;;;;;;5097475;28;20103;-62
2021/08/09 13:06:45;;;;;;;4.57;1.65;;;;;;;;;;5115476;28;20035;-62
2021/08/09 13:09:11;;;;;;;5.38;1.67;;;;;;;;;;5104816;28;20021;-62
2021/08/09 13:11:37;;;;;;;5.30;1.90;;;;;;;;;;5094720;28;20062;-63
2021/08/09 13:14:03;;;;;;;7.10;1.88;;;;;;;;;;5095029;28;20027;-61
2021/08/09 13:16:33;;;;;;;4.90;1.60;;;;;;;;;;5094806;28;20024;-62
2021/08/09 13:19:00;;;;;;;6.47;1.60;;;;;;;;;;5094898;28;20515;-62
2021/08/09 13:21:26;;;;;;;6.40;1.63;;;;;;;;;;5095003;28;20024;-62
2021/08/09 13:23:51;;;;;;;10.38;2.17;;;;;;;;;;5076342;28;20028;-61
2021/08/09 13:26:17;;;;;;;6.85;1.60;;;;;;;;;;5094926;28;20055;-63
2021/08/09 13:28:43;;;;;;;8.05;2.00;;;;;;;;;;5094891;28;20024;-62
2021/08/09 13:31:09;;;;;;;8.40;2.47;;;;;;;;;;5095279;28;20032;-61
2021/08/09 13:33:35;;;;;;;11.13;2.08;;;;;;;;;;5094683;28;20020;-62
2021/08/09 13:36:03;;;;;;;15.48;2.83;;;;;;;;;;5076387;28;20057;-61
2021/08/09 13:38:31;;;;;;;9.30;2.28;;;;;;;;;;5076551;28;20035;-63
2021/08/09 13:40:57;;;;;;;14.30;2.38;;;;;;;;;;5094659;28;20027;-61
2021/08/09 13:43:23;;;;;;;16.75;2.30;;;;;;;;;;5094633;28;20028;-62
2021/08/09 13:45:49;;;;;;;9.55;2.20;;;;;;;;;;5095107;28;20039;-61
2021/08/09 13:48:15;;;;;;;9.85;2.70;;;;;;;;;;5094560;28;20052;-62
2021/08/09 13:50:41;;;;;;;10.68;2.08;;;;;;;;;;5094376;28;20075;-61
2021/08/09 13:53:07;;;;;;;10.98;2.67;;;;;;;;;;5094510;28;20396;-61
2021/08/09 13:55:33;;;;;;;14.95;2.85;;;;;;;;;;5094655;28;20016;-61
2021/08/09 13:57:59;;;;;;;13.63;2.30;;;;;;;;;;5094371;28;20395;-61
2021/08/09 14:00:25;;;;;;;9.93;1.90;;;;;;;;;;5094431;28;20145;-62
2021/08/09 14:02:51;;;;;;;12.38;2.50;;;;;;;;;;5094422;28;20036;-61
2021/08/09 14:05:17;;;;;;;15.13;2.25;;;;;;;;;;5094304;28;20057;-61
2021/08/09 14:07:43;;;;;;;14.02;2.55;;;;;;;;;;5094077;28;20036;-62
2021/08/09 14:10:10;;;;;;;7.78;2.13;;;;;;;;;;5112718;28;20059;-61
2021/08/09 14:12:37;;;;;;;9.05;1.98;;;;;;;;;;5114148;28;20512;-61
2021/08/09 14:15:03;;;;;;;8.82;2.20;;;;;;;;;;5113817;28;20027;-62
2021/08/09 14:17:29;;;;;;;16.50;2.95;;;;;;;;;;5113642;28;20050;-61
2021/08/09 14:19:55;;;;;;;10.35;2.20;;;;;;;;;;5113537;28;20443;-61
2021/08/09 14:22:21;;;;;;;13.55;2.35;;;;;;;;;;5113734;28;20683;-62
2021/08/09 14:24:47;;;;;;;13.70;3.08;;;;;;;;;;5113692;28;20400;-61
2021/08/09 14:27:16;;;;;;;16.85;2.53;;;;;;;;;;5113805;28;20443;-61
2021/08/09 14:29:42;;;;;;;12.63;2.10;;;;;;;;;;5113516;28;20449;-61
2021/08/09 14:32:08;;;;;;;10.13;2.33;;;;;;;;;;5105599;28;20065;-61
2021/08/09 14:34:34;;;;;;;14.60;2.75;;;;;;;;;;5092986;28;20422;-61
2021/08/09 14:37:03;;;;;;;9.48;2.58;;;;;;;;;;5093141;28;20036;-61
2021/08/09 14:39:29;;;;;;;18.83;3.33;;;;;;;;;;5093140;28;20048;-62
2021/08/09 14:41:56;;;;;;;12.93;2.40;;;;;;;;;;5092939;28;20059;-62